createdAt,value
2023-05-18T00:00:30.138Z,1.50
2023-05-18T00:03:15.537Z,1.25
2023-05-18T00:06:04.508Z,1.33
2023-05-18T00:08:49.651Z,1.13
2023-05-18T00:11:39.663Z,1.30
2023-05-18T00:14:25.658Z,1.40
2023-05-18T00:17:10.877Z,1.42
2023-05-18T00:19:58.740Z,1.48
2023-05-18T00:22:44.148Z,1.13
2023-05-18T00:25:29.519Z,1.20
2023-05-18T00:28:15.451Z,1.30
2023-05-18T00:31:00.641Z,1.48
2023-05-18T00:33:45.756Z,1.20
2023-05-18T00:36:32.112Z,1.05
2023-05-18T00:39:17.354Z,1.23
2023-05-18T00:42:02.726Z,1.02
2023-05-18T00:44:47.985Z,1.30
2023-05-18T00:47:33.176Z,1.23
2023-05-18T00:50:19.310Z,1.23
2023-05-18T00:53:04.544Z,0.90
2023-05-18T00:55:50.060Z,1.35
2023-05-18T00:58:35.609Z,1.13
2023-05-18T01:01:28.898Z,1.08
2023-05-18T01:04:14.766Z,0.93
2023-05-18T01:07:06.814Z,1.40
2023-05-18T01:09:54.279Z,1.15
2023-05-18T01:12:56.843Z,1.60
2023-05-18T01:15:46.629Z,1.08
2023-05-18T01:18:38.286Z,1.15
2023-05-18T01:21:57.603Z,1.27
2023-05-18T01:24:45.527Z,1.30
2023-05-18T01:27:37.804Z,1.00
2023-05-18T01:30:23.599Z,1.20
2023-05-18T01:33:10.672Z,1.42
2023-05-18T01:35:56.097Z,1.20
2023-05-18T01:38:44.141Z,1.10
2023-05-18T01:41:31.841Z,1.65
2023-05-18T01:44:41.624Z,1.42
2023-05-18T01:50:17.401Z,1.27
2023-05-18T01:53:08.552Z,1.17
2023-05-18T01:55:55.727Z,1.45
2023-05-18T01:58:42.002Z,2.22
2023-05-18T02:01:28.065Z,1.55
2023-05-18T02:04:13.583Z,1.50
2023-05-18T02:06:59.076Z,1.08
2023-05-18T02:09:44.462Z,1.52
2023-05-18T02:12:29.898Z,1.77
2023-05-18T02:15:15.383Z,1.30
2023-05-18T02:18:00.786Z,2.40
2023-05-18T02:20:48.991Z,1.60
2023-05-18T02:23:34.522Z,1.48
2023-05-18T02:26:20.901Z,1.77
2023-05-18T02:29:06.679Z,1.30
2023-05-18T02:31:51.848Z,1.80
2023-05-18T02:34:38.289Z,1.25
2023-05-18T02:37:23.784Z,1.77
2023-05-18T02:40:13.628Z,1.40
2023-05-18T02:42:59.121Z,1.58
2023-05-18T02:45:44.511Z,1.38
2023-05-18T02:48:29.714Z,1.52
2023-05-18T02:51:14.935Z,1.55
2023-05-18T02:54:00.002Z,1.23
2023-05-18T02:56:45.221Z,1.42
2023-05-18T02:59:30.462Z,1.20
2023-05-18T03:02:16.333Z,1.10
2023-05-18T03:05:02.301Z,1.77
2023-05-18T03:07:51.068Z,1.60
2023-05-18T03:10:37.570Z,1.40
2023-05-18T03:13:23.113Z,1.30
2023-05-18T03:16:08.263Z,1.50
2023-05-18T03:18:53.293Z,1.38
2023-05-18T03:21:38.817Z,1.60
2023-05-18T03:24:26.448Z,1.65
2023-05-18T03:27:13.100Z,1.70
2023-05-18T03:29:58.486Z,1.23
2023-05-18T03:32:43.721Z,1.42
2023-05-18T03:35:29.927Z,1.50
2023-05-18T03:38:15.212Z,1.17
2023-05-18T03:41:00.490Z,1.70
2023-05-18T03:43:46.111Z,1.95
2023-05-18T03:46:31.402Z,1.30
2023-05-18T03:49:16.803Z,1.27
2023-05-18T03:52:03.878Z,1.58
2023-05-18T03:54:49.842Z,1.50
2023-05-18T03:57:35.396Z,1.92
2023-05-18T04:00:20.751Z,1.70
2023-05-18T04:03:06.592Z,1.52
2023-05-18T04:05:51.911Z,2.15
2023-05-18T04:08:37.091Z,1.27
2023-05-18T04:11:22.685Z,1.67
2023-05-18T04:14:08.716Z,1.63
2023-05-18T04:16:54.957Z,1.85
2023-05-18T04:19:40.596Z,1.88
2023-05-18T04:22:25.635Z,1.90
2023-05-18T04:25:14.260Z,2.08
2023-05-18T04:27:59.709Z,1.70
2023-05-18T04:30:46.092Z,1.75
2023-05-18T04:33:31.032Z,1.75
2023-05-18T04:36:21.196Z,1.90
2023-05-18T04:39:07.945Z,2.47
2023-05-18T04:41:58.465Z,1.73
2023-05-18T04:44:44.500Z,2.03
2023-05-18T04:47:30.444Z,1.88
2023-05-18T04:50:17.128Z,1.98
2023-05-18T04:53:03.335Z,1.67
2023-05-18T04:55:50.143Z,1.88
2023-05-18T04:58:35.686Z,2.17
2023-05-18T05:01:21.093Z,1.45
2023-05-18T05:04:06.776Z,1.42
2023-05-18T05:06:52.439Z,1.92
2023-05-18T05:09:37.934Z,1.52
2023-05-18T05:12:23.071Z,1.50
2023-05-18T05:15:09.765Z,1.70
2023-05-18T05:17:55.588Z,1.60
2023-05-18T05:20:41.270Z,1.45
2023-05-18T05:23:26.361Z,1.35
2023-05-18T05:26:11.685Z,1.33
2023-05-18T05:28:56.879Z,1.50
2023-05-18T05:31:42.382Z,1.50
2023-05-18T05:34:27.806Z,1.80
2023-05-18T05:37:13.616Z,1.40
2023-05-18T05:39:59.487Z,1.50
2023-05-18T05:42:44.872Z,1.67
2023-05-18T05:45:30.381Z,1.55
2023-05-18T05:48:15.925Z,1.45
2023-05-18T05:51:01.217Z,1.25
2023-05-18T05:53:47.577Z,1.50
2023-05-18T05:56:32.938Z,1.73
2023-05-18T05:59:18.233Z,1.95
2023-05-18T06:02:03.946Z,1.45
2023-05-18T06:04:49.436Z,1.20
2023-05-18T06:07:35.873Z,1.23
2023-05-18T06:10:21.288Z,1.80
2023-05-18T06:13:07.211Z,1.83
2023-05-18T06:15:52.788Z,1.92
2023-05-18T06:18:38.061Z,1.33
2023-05-18T06:21:23.266Z,1.58
2023-05-18T06:24:08.627Z,1.60
2023-05-18T06:26:54.121Z,1.58
2023-05-18T06:29:39.407Z,1.70
2023-05-18T06:32:24.714Z,1.65
2023-05-18T06:35:10.314Z,1.55
2023-05-18T06:37:55.440Z,1.20
2023-05-18T06:40:40.733Z,1.55
2023-05-18T06:43:26.932Z,2.00
2023-05-18T06:46:26.586Z,1.40
2023-05-18T06:49:12.376Z,1.63
2023-05-18T06:51:57.454Z,1.27
2023-05-18T06:54:43.263Z,1.30
2023-05-18T06:57:28.600Z,1.42
2023-05-18T07:00:14.291Z,2.05
2023-05-18T07:02:59.433Z,1.38
2023-05-18T07:05:44.853Z,1.23
2023-05-18T07:08:30.667Z,1.70
2023-05-18T07:11:15.882Z,1.25
2023-05-18T07:14:01.593Z,1.27
2023-05-18T07:16:47.365Z,1.50
2023-05-18T07:19:33.631Z,1.17
2023-05-18T07:22:19.136Z,0.90
2023-05-18T07:25:04.778Z,1.27
2023-05-18T07:27:52.136Z,1.20
2023-05-18T07:30:37.849Z,1.08
2023-05-18T07:33:23.308Z,1.45
2023-05-18T07:36:08.685Z,1.45
2023-05-18T07:38:55.061Z,1.10
2023-05-18T07:41:40.562Z,1.20
2023-05-18T07:44:25.864Z,1.30
2023-05-18T07:47:11.671Z,0.90
2023-05-18T07:49:56.797Z,1.58
2023-05-18T07:52:42.279Z,1.30
2023-05-18T07:55:27.277Z,1.50
2023-05-18T07:58:13.419Z,1.20
2023-05-18T08:00:58.668Z,1.38
2023-05-18T08:03:44.085Z,1.05
2023-05-18T08:06:29.626Z,1.38
2023-05-18T08:09:14.775Z,1.25
2023-05-18T08:12:00.070Z,1.20
2023-05-18T08:14:45.303Z,1.83
2023-05-18T08:17:30.685Z,1.48
2023-05-18T08:20:17.139Z,1.10
2023-05-18T08:23:02.239Z,1.23
2023-05-18T08:25:47.759Z,1.70
2023-05-18T08:28:33.397Z,1.27
2023-05-18T08:31:18.710Z,0.80
2023-05-18T08:34:05.239Z,1.23
2023-05-18T08:36:50.679Z,1.30
2023-05-18T08:39:37.209Z,1.27
2023-05-18T08:42:34.422Z,1.27
2023-05-18T08:45:46.421Z,1.58
2023-05-18T08:48:33.730Z,1.20
2023-05-18T08:51:21.694Z,1.42
2023-05-18T08:54:10.737Z,1.15
2023-05-18T08:56:57.033Z,1.42
2023-05-18T08:59:44.402Z,1.25
2023-05-18T09:02:30.345Z,1.85
2023-05-18T09:05:16.959Z,1.50
2023-05-18T09:08:03.575Z,1.25
2023-05-18T09:10:50.369Z,1.38
2023-05-18T09:13:35.624Z,1.33
2023-05-18T09:16:20.972Z,1.60
2023-05-18T09:19:06.325Z,1.55
2023-05-18T09:21:52.005Z,1.38
2023-05-18T09:24:37.958Z,1.30
2023-05-18T09:27:23.854Z,1.25
2023-05-18T09:30:11.743Z,1.20
2023-05-18T09:32:57.349Z,1.23
2023-05-18T09:35:42.853Z,1.17
2023-05-18T09:38:28.213Z,1.23
2023-05-18T09:41:17.121Z,1.40
2023-05-18T09:44:07.494Z,1.35
2023-05-18T09:49:41.306Z,1.35
2023-05-18T09:52:26.425Z,1.17
2023-05-18T09:55:12.815Z,1.38
2023-05-18T09:57:58.452Z,1.50
2023-05-18T10:00:51.872Z,1.50
2023-05-18T10:03:38.788Z,1.35
2023-05-18T10:06:27.467Z,1.60
2023-05-18T10:09:17.006Z,1.10
2023-05-18T10:12:02.937Z,1.25
2023-05-18T10:14:49.522Z,1.20
2023-05-18T10:17:35.613Z,1.10
2023-05-18T10:20:29.408Z,1.15
2023-05-18T10:23:15.988Z,1.00
2023-05-18T10:26:07.158Z,1.27
2023-05-18T10:28:54.672Z,1.25
2023-05-18T10:31:41.321Z,1.17
2023-05-18T10:34:27.451Z,1.10
2023-05-18T10:37:14.364Z,1.70
2023-05-18T10:40:01.812Z,1.52
2023-05-18T10:42:48.985Z,0.98
2023-05-18T10:45:36.340Z,1.25
2023-05-18T10:48:23.717Z,1.00
2023-05-18T10:51:09.298Z,1.30
2023-05-18T10:53:56.244Z,1.08
2023-05-18T10:56:45.662Z,1.63
2023-05-18T10:59:31.207Z,1.40
2023-05-18T11:02:18.771Z,1.67
2023-05-18T11:05:07.450Z,1.20
2023-05-18T11:08:01.821Z,1.38
2023-05-18T11:10:47.335Z,1.15
2023-05-18T11:13:34.102Z,1.52
2023-05-18T11:16:20.971Z,1.33
2023-05-18T11:19:09.369Z,1.55
2023-05-18T11:21:54.809Z,1.52
2023-05-18T11:24:42.301Z,1.33
2023-05-18T11:27:28.961Z,1.58
2023-05-18T11:30:33.092Z,1.38
2023-05-18T11:33:21.533Z,1.23
2023-05-18T11:36:14.849Z,1.27
2023-05-18T11:39:06.962Z,1.40
2023-05-18T11:42:06.167Z,1.50
2023-05-18T11:44:57.250Z,1.70
2023-05-18T11:47:43.016Z,1.33
2023-05-18T11:50:31.022Z,1.70
2023-05-18T11:53:18.000Z,1.35
2023-05-18T11:56:04.013Z,1.25
2023-05-18T11:59:13.629Z,1.42
2023-05-18T12:02:01.089Z,1.38
2023-05-18T12:04:50.734Z,1.25
2023-05-18T12:07:36.737Z,1.52
2023-05-18T12:10:22.418Z,1.20
2023-05-18T12:13:09.540Z,1.65
2023-05-18T12:15:58.801Z,1.45
2023-05-18T12:18:51.511Z,1.20
2023-05-18T12:21:37.602Z,1.25
2023-05-18T12:24:23.149Z,1.30
2023-05-18T12:27:11.590Z,1.00
2023-05-18T12:29:57.705Z,1.35
2023-05-18T12:32:52.326Z,1.48
2023-05-18T12:35:37.530Z,1.50
2023-05-18T12:38:27.859Z,1.00
2023-05-18T12:41:22.690Z,1.05
2023-05-18T12:44:07.972Z,1.25
2023-05-18T12:46:53.980Z,0.90
2023-05-18T12:49:40.749Z,1.30
2023-05-18T12:52:26.411Z,1.20
2023-05-18T12:55:22.541Z,1.42
2023-05-18T13:01:09.851Z,1.25
2023-05-18T13:03:59.163Z,1.25
2023-05-18T13:06:44.894Z,1.20
2023-05-18T13:09:29.952Z,1.35
2023-05-18T13:12:15.218Z,1.45
2023-05-18T13:15:16.982Z,1.05
2023-05-18T13:18:05.074Z,1.50
2023-05-18T13:20:53.918Z,1.10
2023-05-18T13:23:39.468Z,1.35
2023-05-18T13:26:25.375Z,1.40
2023-05-18T13:29:11.074Z,1.15
2023-05-18T13:31:56.193Z,1.20
2023-05-18T13:34:43.050Z,1.40
2023-05-18T13:37:28.378Z,1.10
2023-05-18T13:40:13.811Z,1.10
2023-05-18T13:42:59.280Z,1.45
2023-05-18T13:45:44.619Z,1.40
2023-05-18T13:48:30.538Z,1.30
2023-05-18T13:51:16.281Z,1.20
2023-05-18T13:54:02.212Z,1.38
2023-05-18T13:56:48.454Z,1.35
2023-05-18T13:59:34.783Z,1.27
2023-05-18T14:02:20.453Z,1.67
2023-05-18T14:05:08.657Z,1.50
2023-05-18T14:07:54.017Z,1.73
2023-05-18T14:10:39.127Z,1.65
2023-05-18T14:13:24.205Z,1.42
2023-05-18T14:16:09.348Z,1.63
2023-05-18T14:18:54.575Z,1.20
2023-05-18T14:21:39.687Z,1.30
2023-05-18T14:24:25.079Z,1.30
2023-05-18T14:27:10.187Z,1.38
2023-05-18T14:29:55.880Z,1.33
2023-05-18T14:32:40.967Z,1.15
2023-05-18T14:35:26.558Z,1.30
2023-05-18T14:38:12.020Z,1.25
2023-05-18T14:40:57.912Z,1.25
2023-05-18T14:43:43.379Z,1.08
2023-05-18T14:46:28.464Z,1.13
2023-05-18T14:49:14.084Z,1.05
2023-05-18T14:51:59.559Z,1.48
2023-05-18T14:54:44.630Z,1.33
2023-05-18T14:57:30.133Z,1.52
2023-05-18T15:00:16.140Z,1.15
2023-05-18T15:03:01.919Z,0.98
2023-05-18T15:05:47.577Z,1.10
2023-05-18T15:08:33.034Z,0.95
2023-05-18T15:11:18.375Z,1.52
2023-05-18T15:14:03.470Z,1.42
2023-05-18T15:16:49.075Z,1.40
2023-05-18T15:19:34.498Z,1.42
2023-05-18T15:22:19.809Z,1.58
2023-05-18T15:25:07.412Z,1.38
2023-05-18T15:27:53.657Z,1.35
2023-05-18T15:30:38.650Z,1.42
2023-05-18T15:33:24.157Z,1.38
2023-05-18T15:36:10.045Z,1.13
2023-05-18T15:38:55.150Z,1.15
2023-05-18T15:41:40.249Z,1.30
2023-05-18T15:44:26.098Z,1.63
2023-05-18T15:47:12.927Z,1.27
2023-05-18T15:49:58.312Z,1.00
2023-05-18T15:52:44.336Z,1.48
2023-05-18T15:55:29.763Z,1.20
2023-05-18T15:58:16.067Z,1.60
2023-05-18T16:01:01.553Z,1.25
2023-05-18T16:03:46.926Z,1.40
2023-05-18T16:06:35.316Z,1.25
2023-05-18T16:09:20.436Z,1.23
2023-05-18T16:12:05.990Z,1.20
2023-05-18T16:14:51.892Z,1.85
2023-05-18T16:17:37.051Z,1.90
2023-05-18T16:20:23.479Z,2.33
2023-05-18T16:23:08.959Z,1.33
2023-05-18T16:25:54.232Z,2.40
2023-05-18T16:28:40.292Z,1.52
2023-05-18T16:31:25.609Z,1.30
2023-05-18T16:34:11.013Z,1.40
2023-05-18T16:36:56.545Z,1.52
2023-05-18T16:39:41.745Z,2.20
2023-05-18T16:42:27.216Z,1.60
2023-05-18T16:45:12.721Z,2.53
2023-05-18T16:47:58.166Z,1.13
2023-05-18T16:50:43.399Z,1.63
2023-05-18T16:53:28.524Z,1.25
2023-05-18T16:56:13.791Z,1.77
2023-05-18T16:58:58.882Z,1.80
2023-05-18T17:01:44.457Z,2.80
2023-05-18T17:04:29.759Z,1.65
2023-05-18T17:07:15.178Z,1.48
2023-05-18T17:10:00.617Z,1.58
2023-05-18T17:12:45.772Z,1.70
2023-05-18T17:15:33.137Z,1.75
2023-05-18T17:18:18.909Z,1.38
2023-05-18T17:21:04.171Z,3.80
2023-05-18T17:23:49.237Z,4.22
2023-05-18T17:26:34.225Z,1.45
2023-05-18T17:29:21.060Z,3.47
2023-05-18T17:32:08.474Z,1.35
2023-05-18T17:34:53.729Z,1.35
2023-05-18T17:37:39.477Z,1.20
2023-05-18T17:40:24.681Z,1.25
2023-05-18T17:43:10.155Z,1.20
2023-05-18T17:45:55.559Z,1.38
2023-05-18T17:48:40.749Z,1.52
2023-05-18T17:51:26.112Z,1.27
2023-05-18T17:54:11.428Z,0.85
2023-05-18T17:56:56.981Z,1.30
2023-05-18T17:59:42.369Z,1.30
2023-05-18T18:02:27.405Z,1.13
2023-05-18T18:05:13.073Z,1.33
2023-05-18T18:07:58.428Z,1.40
2023-05-18T18:10:43.823Z,1.63
2023-05-18T18:13:29.004Z,1.30
2023-05-18T18:16:15.359Z,1.55
2023-05-18T18:19:02.894Z,1.50
2023-05-18T18:21:48.321Z,1.40
2023-05-18T18:24:33.680Z,1.75
2023-05-18T18:27:19.912Z,1.60
2023-05-18T18:30:06.969Z,1.45
2023-05-18T18:32:52.107Z,1.85
2023-05-18T18:35:37.803Z,1.70
2023-05-18T18:38:23.259Z,1.80
2023-05-18T18:41:08.636Z,1.73
2023-05-18T18:43:54.893Z,1.42
2023-05-18T18:46:40.892Z,1.50
2023-05-18T18:49:26.537Z,1.83
2023-05-18T18:52:14.073Z,1.60
2023-05-18T18:54:59.862Z,1.80
2023-05-18T18:57:45.665Z,1.73
2023-05-18T19:00:30.692Z,2.20
2023-05-18T19:03:16.193Z,2.05
2023-05-18T19:06:01.882Z,2.05
2023-05-18T19:08:47.473Z,1.80
2023-05-18T19:11:32.786Z,2.25
2023-05-18T19:14:17.982Z,2.10
2023-05-18T19:17:03.377Z,2.20
2023-05-18T19:19:48.649Z,2.05
2023-05-18T19:22:34.395Z,1.90
2023-05-18T19:25:21.330Z,2.08
2023-05-18T19:28:06.780Z,1.92
2023-05-18T19:30:51.809Z,2.45
2023-05-18T19:33:36.852Z,2.03
2023-05-18T19:36:21.831Z,2.35
2023-05-18T19:39:06.948Z,2.20
2023-05-18T19:41:52.087Z,2.10
2023-05-18T19:44:37.755Z,2.05
2023-05-18T19:47:23.209Z,2.35
2023-05-18T19:50:08.650Z,2.08
2023-05-18T19:52:54.064Z,1.95
2023-05-18T19:55:39.415Z,2.45
2023-05-18T19:58:24.549Z,2.30
2023-05-18T20:01:12.971Z,2.60
2023-05-18T20:03:59.290Z,2.33
2023-05-18T20:06:45.127Z,2.50
2023-05-18T20:09:30.840Z,2.42
2023-05-18T20:12:16.204Z,2.40
2023-05-18T20:15:01.326Z,2.00
2023-05-18T20:17:46.657Z,2.22
2023-05-18T20:20:33.169Z,2.00
2023-05-18T20:23:18.545Z,2.30
2023-05-18T20:26:05.664Z,2.60
2023-05-18T20:28:51.117Z,2.05
2023-05-18T20:31:36.937Z,2.08
2023-05-18T20:34:22.582Z,2.85
2023-05-18T20:37:10.777Z,2.45
2023-05-18T20:39:57.484Z,2.42
2023-05-18T20:42:42.927Z,2.78
2023-05-18T20:45:31.551Z,2.20
2023-05-18T20:48:24.610Z,2.58
2023-05-18T20:51:15.224Z,2.38
2023-05-18T20:56:45.843Z,3.20
2023-05-18T20:59:31.763Z,2.53
2023-05-18T21:02:17.010Z,2.53
2023-05-18T21:05:02.925Z,2.85
2023-05-18T21:07:50.220Z,2.75
2023-05-18T21:10:35.622Z,2.85
2023-05-18T21:13:21.255Z,3.00
2023-05-18T21:16:08.393Z,3.15
2023-05-18T21:18:54.060Z,3.00
2023-05-18T21:21:39.301Z,3.40
2023-05-18T21:24:24.475Z,2.67
2023-05-18T21:27:09.923Z,3.00
2023-05-18T21:29:55.083Z,2.72
2023-05-18T21:32:40.859Z,3.20
2023-05-18T21:35:26.725Z,2.70
2023-05-18T21:38:12.209Z,2.50
2023-05-18T21:40:58.010Z,3.25
2023-05-18T21:43:43.516Z,3.50
2023-05-18T21:46:28.781Z,3.08
2023-05-18T21:49:14.380Z,2.72
2023-05-18T21:51:59.861Z,2.78
2023-05-18T21:54:45.003Z,2.70
2023-05-18T21:57:30.092Z,2.63
2023-05-18T22:00:17.331Z,3.00
2023-05-18T22:03:02.847Z,3.20
2023-05-18T22:05:48.262Z,2.90
2023-05-18T22:08:33.232Z,3.05
2023-05-18T22:11:18.482Z,3.40
2023-05-18T22:14:03.464Z,3.20
2023-05-18T22:16:49.106Z,3.28
2023-05-18T22:19:34.765Z,2.75
2023-05-18T22:22:30.232Z,2.67
2023-05-18T22:25:17.984Z,2.53
2023-05-18T22:28:03.469Z,3.15
2023-05-18T22:30:49.447Z,2.97
2023-05-18T22:33:34.778Z,3.30
2023-05-18T22:36:21.499Z,2.42
2023-05-18T22:39:07.091Z,2.60
2023-05-18T22:41:52.216Z,2.60
2023-05-18T22:44:37.493Z,2.63
2023-05-18T22:47:23.745Z,2.72
2023-05-18T22:50:09.411Z,2.40
2023-05-18T22:52:55.000Z,2.55
2023-05-18T22:55:40.707Z,2.63
2023-05-18T22:58:26.025Z,2.95
2023-05-18T23:01:11.359Z,3.10
2023-05-18T23:03:57.444Z,2.88
2023-05-18T23:06:42.660Z,2.88
2023-05-18T23:09:28.034Z,2.60
2023-05-18T23:12:13.513Z,2.92
2023-05-18T23:15:02.429Z,2.72
2023-05-18T23:17:47.975Z,2.75
2023-05-18T23:20:34.571Z,3.10
2023-05-18T23:23:20.870Z,3.05
2023-05-18T23:26:05.996Z,2.78
2023-05-18T23:28:51.605Z,3.08
2023-05-18T23:31:37.196Z,3.15
2023-05-18T23:34:23.516Z,3.28
2023-05-18T23:37:12.224Z,3.22
2023-05-18T23:40:01.107Z,3.58
2023-05-18T23:42:47.502Z,3.58
2023-05-18T23:45:33.570Z,3.25
2023-05-18T23:48:19.209Z,4.13
2023-05-18T23:51:05.758Z,3.50
2023-05-18T23:53:51.900Z,3.60
2023-05-18T23:56:37.362Z,3.78
2023-05-18T23:59:22.844Z,3.72
